Pagrindinis puslapis
METAR-TAF:

METAR-TAF

Oro uostai :

Uherske Hradištė, Čekija

platuma: 49-01-46N, ilguma: 017-26-23E, Aukštis: 177 m

Dabartinis oras

Ataskaita buvo paskelbta 1 valandą ir 54 minutes, ne 17:00 UTC
Vėjas 6 kt iš Pietų/Pietryčių
Temperatūra 11°C
Drėgmė 76%
Slėgis 1015 hPa
Matomumas 10 km arba daugiau
Mažai debesys ne aukštis 3500 ft

METAR: LKKU 291700Z 15006KT 9999 FEW035 11/07 Q1015

Laikas: 19:54 (18:54 UTC)


TAF: trūkstamas

Orai ataskaitas ir orų prognozės (METAR, TAF).

turimą stotys yra geltonos ir raudonos taškus žemėlapyje.

Perkelti pele per norėdami pamatyti stoties vardą.

Tada spustelėkite, norėdami matyti oro stebėjimo ir prognozės.

Norėdami pakeisti žemėlapį: spustelėkite ant žalios mygtukų su juodo kryžiaus žemyn,; žalią mygtuką su brūkšneliu, jei norite nutolinti; arba žalių rodyklių gretimoms žemėlapius.


METAR-TAF: